Time;durP1;ratioP1;P1;durP2;ratioP2;P2;SDS_P1;SDS_P2;PMS_P1;PMS_P2;Temp;Humidity;BMP_temperature;BMP_pressure;BME280_temperature;BME280_humidity;BME280_pressure;Samples;Min_cycle;Max_cycle;Signal;HPM_P1;HPM_P2
2021/04/15 00:00:54;;;;;;;4.47;2.75;;;4.90;66.40;;;;;;5073860;28;20406;-71
2021/04/15 00:03:24;;;;;;;7.70;3.13;;;5.00;66.80;;;;;;5090370;28;20048;-71
2021/04/15 00:05:52;;;;;;;3.92;2.97;;;4.70;66.90;;;;;;5080470;28;20488;-70
2021/04/15 00:08:20;;;;;;;4.47;2.70;;;4.70;67.20;;;;;;5073648;28;20147;-71
2021/04/15 00:10:53;;;;;;;4.05;2.72;;;4.70;67.40;;;;;;5074225;28;20048;-70
2021/04/15 00:13:30;;;;;;;4.75;3.10;;;4.80;67.40;;;;;;5071431;28;20214;-71
2021/04/15 00:15:58;;;;;;;4.07;2.85;;;4.70;67.60;;;;;;5069827;28;20048;-70
2021/04/15 00:18:25;;;;;;;5.47;2.92;;;4.80;67.80;;;;;;5075341;28;20048;-70
2021/04/15 00:20:53;;;;;;;4.05;2.80;;;4.80;67.60;;;;;;5071130;28;20060;-70
2021/04/15 00:23:20;;;;;;;6.05;2.78;;;4.60;67.60;;;;;;5072370;28;20637;-71
2021/04/15 00:25:46;;;;;;;4.25;2.83;;;4.70;68.00;;;;;;5068903;28;20051;-71
2021/04/15 00:28:13;;;;;;;5.82;2.70;;;4.70;68.10;;;;;;5076400;28;20040;-71
2021/04/15 00:30:40;;;;;;;4.13;2.50;;;4.80;67.40;;;;;;5068167;28;20072;-71
2021/04/15 00:33:07;;;;;;;4.90;2.78;;;4.80;67.40;;;;;;5073232;28;20068;-69
2021/04/15 00:35:35;;;;;;;4.15;2.60;;;4.80;67.70;;;;;;5070222;28;20447;-69
2021/04/15 00:38:02;;;;;;;3.47;2.42;;;4.90;67.10;;;;;;5071586;28;20149;-69
2021/04/15 00:40:28;;;;;;;4.07;2.65;;;4.90;67.20;;;;;;5072065;28;20091;-69
2021/04/15 00:42:55;;;;;;;4.63;2.40;;;5.00;67.90;;;;;;5073512;28;20097;-70
2021/04/15 00:45:26;;;;;;;5.22;2.80;;;4.80;67.60;;;;;;5072768;28;20448;-70
2021/04/15 00:48:04;;;;;;;4.25;2.58;;;4.70;67.80;;;;;;5074143;28;20040;-70
2021/04/15 00:50:52;;;;;;;3.78;2.30;;;4.60;68.10;;;;;;5072733;28;20623;-69
2021/04/15 00:53:25;;;;;;;9.68;3.00;;;4.60;68.80;;;;;;5073173;28;20135;-70
2021/04/15 00:55:53;;;;;;;4.78;2.50;;;4.50;69.10;;;;;;5070780;28;20059;-70
2021/04/15 00:58:20;;;;;;;2.97;2.28;;;4.60;69.20;;;;;;5068694;28;20083;-69
2021/04/15 01:00:47;;;;;;;5.78;2.92;;;4.60;69.10;;;;;;5071356;28;20547;-68
2021/04/15 01:03:13;;;;;;;6.20;3.00;;;4.80;68.60;;;;;;5073573;28;20629;-68
2021/04/15 01:05:43;;;;;;;3.72;2.47;;;4.50;68.40;;;;;;5070438;28;20048;-69
2021/04/15 01:08:10;;;;;;;4.60;2.60;;;4.70;68.60;;;;;;5076710;28;20441;-70
2021/04/15 01:10:41;;;;;;;5.53;2.72;;;4.80;69.50;;;;;;5070142;28;20118;-69
2021/04/15 01:13:17;;;;;;;4.72;2.85;;;4.50;69.60;;;;;;5069063;28;20071;-69
2021/04/15 01:16:00;;;;;;;4.50;3.00;;;4.50;70.00;;;;;;5069117;28;20481;-69
2021/04/15 01:19:00;;;;;;;7.13;2.83;;;4.50;69.30;;;;;;5072018;28;20130;-69
2021/04/15 01:22:09;;;;;;;8.38;3.33;;;4.40;69.80;;;;;;5072557;28;20136;-69
2021/04/15 01:24:49;;;;;;;4.85;2.97;;;4.30;70.00;;;;;;5071455;28;20055;-69
2021/04/15 01:27:30;;;;;;;4.60;2.77;;;4.70;69.70;;;;;;5070817;28;20076;-69
2021/04/15 01:30:21;;;;;;;5.25;2.67;;;4.60;70.20;;;;;;5069831;28;20041;-69
2021/04/15 01:33:08;;;;;;;5.30;2.78;;;4.50;70.20;;;;;;5077747;28;20083;-69
2021/04/15 01:35:55;;;;;;;3.17;2.63;;;4.50;70.10;;;;;;5067760;28;20502;-70
2021/04/15 01:38:46;;;;;;;6.90;2.83;;;4.30;70.10;;;;;;5071979;28;20109;-70
2021/04/15 01:41:21;;;;;;;5.43;3.42;;;4.30;70.70;;;;;;5084100;28;20059;-69
2021/04/15 01:43:53;;;;;;;7.72;3.08;;;4.00;71.60;;;;;;5074490;28;20475;-69
2021/04/15 01:46:24;;;;;;;4.80;2.85;;;4.30;72.00;;;;;;5068861;28;20047;-69
2021/04/15 01:48:52;;;;;;;5.13;2.95;;;4.30;71.40;;;;;;5074773;28;20079;-70
2021/04/15 01:51:29;;;;;;;6.32;2.90;;;4.40;71.40;;;;;;5069115;28;20131;-69
2021/04/15 01:54:26;;;;;;;6.68;3.05;;;4.00;72.00;;;;;;5070850;28;20074;-69
2021/04/15 01:57:13;;;;;;;5.32;3.10;;;4.20;72.30;;;;;;5082589;28;20047;-70
2021/04/15 01:59:47;;;;;;;5.18;3.00;;;4.30;72.50;;;;;;5085907;28;20121;-69
2021/04/15 02:02:28;;;;;;;6.90;3.10;;;4.00;72.40;;;;;;5089796;28;20720;-69
2021/04/15 02:05:26;;;;;;;4.15;2.67;;;4.30;72.70;;;;;;5076776;28;20082;-68
2021/04/15 02:08:03;;;;;;;5.50;2.95;;;4.20;72.20;;;;;;5071779;28;20093;-69
2021/04/15 02:10:30;;;;;;;4.65;2.70;;;4.10;72.70;;;;;;5100518;28;20044;-70
2021/04/15 02:13:01;;;;;;;7.32;3.03;;;4.40;72.80;;;;;;5084419;28;20094;-69
2021/04/15 02:15:31;;;;;;;6.65;3.22;;;4.10;72.90;;;;;;5089279;28;20118;-69
2021/04/15 02:18:02;;;;;;;6.45;3.20;;;4.10;73.10;;;;;;5091724;28;20068;-69
2021/04/15 02:20:29;;;;;;;6.75;3.15;;;4.20;73.80;;;;;;5079798;28;20063;-68
2021/04/15 02:23:16;;;;;;;5.10;2.92;;;4.20;74.10;;;;;;5083200;28;20052;-69
2021/04/15 02:25:48;;;;;;;4.82;3.15;;;4.00;72.50;;;;;;5089071;28;20101;-68
2021/04/15 02:28:22;;;;;;;4.72;3.40;;;4.00;73.50;;;;;;5082560;28;20040;-69
2021/04/15 02:31:04;;;;;;;8.43;3.10;;;4.10;74.30;;;;;;5082191;28;20113;-68
2021/04/15 02:33:47;;;;;;;4.43;2.85;;;4.30;73.50;;;;;;5086281;28;20144;-69
2021/04/15 02:36:15;;;;;;;5.85;3.65;;;4.20;72.80;;;;;;5085706;28;20387;-68
2021/04/15 02:39:03;;;;;;;5.43;3.22;;;4.20;73.50;;;;;;5091567;28;20414;-69
2021/04/15 02:41:32;;;;;;;6.20;2.90;;;4.00;74.10;;;;;;5089266;28;20074;-69
2021/04/15 02:44:10;;;;;;;6.95;3.75;;;4.00;74.50;;;;;;5079152;28;20105;-69
2021/04/15 02:46:44;;;;;;;7.40;2.78;;;4.00;73.80;;;;;;5075850;28;20100;-70
2021/04/15 02:49:13;;;;;;;7.15;3.35;;;4.10;73.50;;;;;;5081125;28;20072;-69
2021/04/15 02:51:58;;;;;;;6.53;3.13;;;4.20;74.00;;;;;;5078695;28;20048;-70
2021/04/15 02:54:46;;;;;;;6.22;3.75;;;3.90;74.60;;;;;;5085130;28;20043;-70
2021/04/15 02:57:17;;;;;;;4.80;3.17;;;3.80;75.20;;;;;;5089732;28;20048;-69
2021/04/15 03:00:12;;;;;;;9.30;3.33;;;3.90;74.80;;;;;;5079641;28;20052;-70
2021/04/15 03:02:48;;;;;;;9.27;3.47;;;3.70;75.20;;;;;;5078075;28;20102;-70
2021/04/15 03:05:22;;;;;;;7.22;3.53;;;3.70;75.20;;;;;;5086390;28;20456;-70
2021/04/15 03:07:49;;;;;;;9.68;3.20;;;3.80;76.00;;;;;;5087020;28;20093;-69
2021/04/15 03:10:30;;;;;;;5.88;3.78;;;3.60;76.70;;;;;;5101723;28;20101;-70
2021/04/15 03:13:05;;;;;;;6.00;3.85;;;3.70;77.60;;;;;;5088849;28;20044;-69
2021/04/15 03:15:37;;;;;;;5.70;3.75;;;3.60;77.50;;;;;;5084510;28;20499;-70
2021/04/15 03:18:10;;;;;;;8.15;3.83;;;3.70;77.30;;;;;;5083241;28;20052;-69
2021/04/15 03:20:48;;;;;;;5.50;3.17;;;3.60;78.20;;;;;;5089609;28;20442;-69
2021/04/15 03:23:46;;;;;;;5.95;3.20;;;3.50;77.50;;;;;;5084698;28;20088;-69
2021/04/15 03:26:24;;;;;;;7.78;3.90;;;3.70;76.70;;;;;;5062455;28;21502;-69
2021/04/15 03:29:08;;;;;;;6.45;3.85;;;3.90;76.00;;;;;;5084480;28;20203;-69
2021/04/15 03:31:42;;;;;;;5.47;3.33;;;3.80;76.50;;;;;;5080017;28;20132;-69
2021/04/15 03:34:51;;;;;;;5.97;3.85;;;3.80;77.00;;;;;;5083193;28;20048;-69
2021/04/15 03:37:32;;;;;;;7.60;3.60;;;3.80;76.10;;;;;;5032361;28;20083;-69
2021/04/15 03:40:00;;;;;;;11.07;4.00;;;3.60;76.80;;;;;;5085446;28;20059;-69
2021/04/15 03:42:36;;;;;;;7.78;4.13;;;3.60;76.90;;;;;;5080716;28;20478;-69
2021/04/15 03:45:09;;;;;;;6.93;3.92;;;3.80;77.30;;;;;;5087912;28;20056;-69
2021/04/15 03:47:40;;;;;;;7.82;4.10;;;3.70;77.30;;;;;;5087156;28;20101;-69
2021/04/15 03:50:12;;;;;;;10.35;4.25;;;3.50;77.40;;;;;;5085417;28;20432;-69
2021/04/15 03:52:49;;;;;;;8.43;3.85;;;3.40;79.20;;;;;;5083706;28;20044;-70
2021/04/15 03:55:45;;;;;;;8.15;4.10;;;3.60;78.40;;;;;;5079900;28;20045;-70
2021/04/15 03:58:27;;;;;;;6.22;4.38;;;3.70;77.50;;;;;;5066864;28;20079;-69
2021/04/15 04:00:59;;;;;;;9.23;4.57;;;3.80;77.10;;;;;;5081865;28;20044;-70
2021/04/15 04:03:28;;;;;;;11.98;5.10;;;3.70;77.60;;;;;;5086814;28;20467;-70
2021/04/15 04:06:18;;;;;;;10.05;4.80;;;3.70;78.60;;;;;;5078017;28;20399;-69
2021/04/15 04:08:57;;;;;;;9.95;4.82;;;3.50;78.10;;;;;;5079702;28;20522;-70
2021/04/15 04:11:28;;;;;;;8.88;5.07;;;4.00;77.70;;;;;;5084346;28;20052;-69
2021/04/15 04:14:05;;;;;;;13.88;5.18;;;3.70;77.80;;;;;;5081241;28;20102;-69
2021/04/15 04:16:43;;;;;;;12.30;4.68;;;3.60;79.30;;;;;;5081231;28;20129;-69
2021/04/15 04:19:38;;;;;;;10.40;5.55;;;3.60;78.10;;;;;;5080685;28;20139;-69
2021/04/15 04:22:28;;;;;;;7.65;4.45;;;3.50;78.20;;;;;;5085631;28;20130;-69
2021/04/15 04:25:07;;;;;;;7.82;4.65;;;3.30;80.30;;;;;;5080862;28;20411;-68
2021/04/15 04:27:40;;;;;;;9.32;4.57;;;3.20;79.60;;;;;;5088949;28;20112;-69
2021/04/15 04:30:08;;;;;;;10.05;5.53;;;3.50;79.90;;;;;;5082602;28;20063;-69
2021/04/15 04:32:36;;;;;;;8.00;4.88;;;3.40;79.20;;;;;;5089867;28;20463;-68
2021/04/15 04:35:06;;;;;;;6.32;3.83;;;3.20;79.80;;;;;;5087253;28;20090;-68
2021/04/15 04:37:43;;;;;;;9.57;4.90;;;3.30;80.10;;;;;;5091349;28;20463;-69
2021/04/15 04:40:21;;;;;;;8.77;4.22;;;3.40;80.90;;;;;;5089638;28;20067;-70
2021/04/15 04:43:10;;;;;;;8.93;4.90;;;3.30;82.10;;;;;;5088483;28;20491;-69
2021/04/15 04:45:37;;;;;;;9.55;4.68;;;3.20;81.30;;;;;;5084280;28;20135;-69
2021/04/15 04:48:22;;;;;;;10.07;5.10;;;3.20;81.70;;;;;;5089695;28;20484;-69
2021/04/15 04:51:03;;;;;;;8.02;4.93;;;3.40;81.50;;;;;;5088567;28;20048;-69
2021/04/15 04:53:44;;;;;;;7.57;4.30;;;3.50;81.60;;;;;;5081392;28;20056;-69
2021/04/15 04:56:29;;;;;;;11.38;5.05;;;3.40;81.30;;;;;;5077854;28;20068;-68
2021/04/15 04:59:02;;;;;;;10.43;4.90;;;3.30;80.80;;;;;;5081660;28;20146;-70
2021/04/15 05:01:29;;;;;;;8.65;6.18;;;3.30;81.20;;;;;;5081361;28;20106;-69
2021/04/15 05:03:59;;;;;;;10.02;4.75;;;3.30;81.40;;;;;;5088781;28;20082;-69
2021/04/15 05:06:29;;;;;;;9.05;5.10;;;3.70;81.40;;;;;;5090548;28;20461;-70
2021/04/15 05:09:24;;;;;;;9.32;5.40;;;3.50;80.80;;;;;;5086229;28;20520;-70
2021/04/15 05:11:52;;;;;;;9.70;5.50;;;3.40;80.60;;;;;;5088854;28;20528;-70
2021/04/15 05:14:25;;;;;;;8.95;5.68;;;3.40;82.00;;;;;;5088972;28;20105;-69
2021/04/15 05:17:02;;;;;;;12.43;5.65;;;3.40;82.40;;;;;;5082248;28;20521;-70
2021/04/15 05:19:30;;;;;;;11.77;6.22;;;3.30;81.90;;;;;;5076474;28;20517;-70
2021/04/15 05:21:59;;;;;;;9.65;5.85;;;3.50;82.20;;;;;;5074541;28;20135;-70
2021/04/15 05:25:06;;;;;;;11.88;5.93;;;3.80;81.90;;;;;;5072233;28;20139;-70
2021/04/15 05:27:35;;;;;;;11.70;5.75;;;3.60;80.80;;;;;;5025646;28;20092;-70
2021/04/15 05:30:35;;;;;;;12.77;6.15;;;3.90;81.40;;;;;;5021591;28;20057;-70
2021/04/15 05:33:05;;;;;;;10.68;6.15;;;3.60;80.80;;;;;;5059442;28;20082;-69
2021/04/15 05:35:37;;;;;;;10.93;6.25;;;3.60;81.20;;;;;;5081823;28;20040;-70
2021/04/15 05:38:07;;;;;;;11.35;6.50;;;3.70;81.00;;;;;;5081811;28;20084;-70
2021/04/15 05:40:36;;;;;;;16.88;6.88;;;3.70;80.80;;;;;;5084497;28;20501;-69
2021/04/15 05:43:20;;;;;;;13.15;5.95;;;3.90;80.80;;;;;;5082399;28;20101;-70
2021/04/15 05:45:50;;;;;;;14.02;6.90;;;4.30;80.40;;;;;;5084991;28;20079;-69
2021/04/15 05:48:20;;;;;;;14.30;6.82;;;4.40;79.50;;;;;;5088711;28;20492;-69
2021/04/15 05:50:51;;;;;;;12.02;6.97;;;5.10;77.50;;;;;;5078259;28;20131;-69
2021/04/15 05:53:22;;;;;;;13.00;6.40;;;5.90;71.80;;;;;;5082824;28;20517;-69
2021/04/15 05:55:56;;;;;;;15.82;7.10;;;6.10;71.10;;;;;;5085991;28;20044;-68
2021/04/15 05:58:26;;;;;;;;;;;6.10;69.20;;;;;;5079717;28;20075;-69
2021/04/15 06:01:09;;;;;;;16.83;6.60;;;6.80;67.70;;;;;;5072615;28;20420;-70
2021/04/15 06:03:46;;;;;;;12.93;7.28;;;6.80;65.90;;;;;;5072405;28;20133;-70
2021/04/15 06:06:35;;;;;;;12.75;6.85;;;6.30;66.60;;;;;;5072107;28;20388;-69
2021/04/15 06:09:02;;;;;;;11.63;6.30;;;6.10;67.50;;;;;;5084582;28;20125;-69
2021/04/15 06:11:44;;;;;;;12.82;7.53;;;5.90;68.40;;;;;;5086319;28;20055;-69
2021/04/15 06:14:17;;;;;;;9.43;6.05;;;5.90;69.10;;;;;;5103550;28;20098;-69
2021/04/15 06:17:22;;;;;;;10.07;5.93;;;6.30;69.30;;;;;;5081866;28;20105;-69
2021/04/15 06:19:53;;;;;;;10.68;5.95;;;6.10;67.70;;;;;;5091253;28;20047;-70
2021/04/15 06:22:24;;;;;;;10.75;5.97;;;6.50;67.40;;;;;;5088711;28;20076;-69
2021/04/15 06:24:59;;;;;;;12.93;6.70;;;6.50;66.40;;;;;;5083393;28;20044;-69
2021/04/15 06:27:26;;;;;;;12.68;6.95;;;6.50;66.60;;;;;;5076801;28;20539;-69
2021/04/15 06:29:58;;;;;;;14.13;7.55;;;6.50;66.70;;;;;;5087928;27;20063;-69
2021/04/15 06:32:48;;;;;;;12.23;7.88;;;6.30;66.80;;;;;;5082624;28;20483;-69
2021/04/15 06:35:23;;;;;;;10.63;6.53;;;6.10;67.80;;;;;;5089113;28;20040;-69
2021/04/15 06:38:33;;;;;;;14.48;6.50;;;6.10;68.50;;;;;;5086210;28;20071;-68
2021/04/15 06:41:37;;;;;;;10.65;6.63;;;5.80;68.50;;;;;;5082787;28;20087;-68
2021/04/15 06:44:43;;;;;;;11.23;6.65;;;6.30;68.40;;;;;;5080728;28;20089;-68
2021/04/15 06:47:33;;;;;;;12.60;6.70;;;6.70;67.30;;;;;;5083201;28;20048;-69
2021/04/15 06:50:06;;;;;;;14.20;6.00;;;7.10;64.60;;;;;;5103251;28;20044;-69
2021/04/15 06:52:54;;;;;;;9.70;5.47;;;8.20;63.00;;;;;;5083563;28;20073;-69
2021/04/15 06:55:20;;;;;;;10.85;6.05;;;8.60;59.00;;;;;;5080889;28;20044;-68
2021/04/15 06:58:01;;;;;;;7.80;5.10;;;9.50;58.60;;;;;;5081592;28;20048;-69
2021/04/15 07:00:47;;;;;;;10.43;5.47;;;9.70;56.70;;;;;;5075119;28;20056;-68
2021/04/15 07:03:18;;;;;;;10.80;6.10;;;9.70;56.20;;;;;;5082421;28;20135;-69
2021/04/15 07:05:53;;;;;;;8.98;6.03;;;10.00;54.90;;;;;;5085938;28;20448;-69
2021/04/15 07:09:18;;;;;;;8.30;5.50;;;8.90;57.10;;;;;;5081359;28;20083;-68
2021/04/15 07:12:06;;;;;;;8.27;5.65;;;10.00;55.30;;;;;;4979754;28;20054;-69
2021/04/15 07:14:49;;;;;;;8.27;5.38;;;10.60;53.30;;;;;;4995072;28;20085;-69
2021/04/15 07:17:40;;;;;;;10.40;5.75;;;9.80;54.70;;;;;;5055299;28;20454;-69
2021/04/15 07:20:27;;;;;;;12.93;5.38;;;8.70;57.30;;;;;;5075192;28;20048;-70
2021/04/15 07:23:24;;;;;;;8.38;5.38;;;9.30;56.50;;;;;;5086808;28;20044;-69
2021/04/15 07:26:10;;;;;;;7.25;5.28;;;9.90;55.70;;;;;;5079393;28;20483;-69
2021/04/15 07:28:58;;;;;;;9.60;5.72;;;9.80;54.90;;;;;;5078345;28;20044;-69
2021/04/15 07:31:53;;;;;;;9.82;5.47;;;10.70;52.90;;;;;;5074023;28;20090;-71
2021/04/15 07:34:54;;;;;;;9.32;5.60;;;10.50;53.20;;;;;;5078856;28;20181;-67
2021/04/15 07:37:41;;;;;;;8.20;5.68;;;9.30;54.80;;;;;;5080322;28;20386;-68
2021/04/15 07:40:46;;;;;;;9.77;5.78;;;9.30;55.60;;;;;;5074263;28;20044;-67
2021/04/15 07:43:44;;;;;;;7.55;5.63;;;9.00;55.70;;;;;;5060150;28;20072;-65
2021/04/15 07:46:19;;;;;;;8.63;5.22;;;8.40;57.60;;;;;;5082380;28;20068;-67
2021/04/15 07:49:19;;;;;;;8.75;6.05;;;9.50;55.70;;;;;;5080670;28;20498;-69
2021/04/15 07:51:45;;;;;;;8.75;5.70;;;9.00;56.60;;;;;;5086286;28;20080;-70
2021/04/15 07:54:30;;;;;;;8.13;5.38;;;10.10;54.10;;;;;;5088604;28;20097;-72
2021/04/15 07:57:11;;;;;;;10.77;5.43;;;11.40;52.10;;;;;;5092193;28;20420;-73
2021/04/15 08:00:16;;;;;;;8.73;5.35;;;10.40;51.00;;;;;;5074438;28;20059;-73
2021/04/15 08:03:10;;;;;;;9.48;5.65;;;10.00;54.10;;;;;;5064922;28;20612;-72
2021/04/15 08:05:39;;;;;;;7.22;5.32;;;10.00;54.20;;;;;;5080563;28;20051;-72
2021/04/15 08:08:29;;;;;;;10.25;5.38;;;10.20;52.70;;;;;;5082489;28;21353;-74
2021/04/15 08:11:19;;;;;;;12.70;5.25;;;10.60;52.80;;;;;;5085979;28;20090;-73
2021/04/15 08:13:48;;;;;;;10.52;5.68;;;11.10;51.30;;;;;;5071432;28;20059;-73
2021/04/15 08:16:24;;;;;;;9.60;5.57;;;10.20;51.00;;;;;;5083437;28;20073;-73
2021/04/15 08:19:22;;;;;;;11.30;5.63;;;9.60;53.40;;;;;;5084733;28;20118;-72
2021/04/15 08:22:28;;;;;;;9.10;5.47;;;10.30;52.10;;;;;;5081911;28;20082;-72
2021/04/15 08:25:20;;;;;;;9.32;6.28;;;11.00;49.50;;;;;;5084071;28;20048;-71
2021/04/15 08:28:25;;;;;;;7.88;5.18;;;11.00;51.10;;;;;;5083066;28;20052;-69
2021/04/15 08:31:17;;;;;;;7.32;4.72;;;11.80;49.60;;;;;;5076168;28;20051;-72
2021/04/15 08:33:53;;;;;;;7.57;5.07;;;11.20;49.20;;;;;;5083392;28;20093;-71
2021/04/15 08:36:25;;;;;;;8.00;4.80;;;11.20;49.80;;;;;;5084722;28;20071;-71
2021/04/15 08:39:03;;;;;;;6.85;5.25;;;11.30;49.70;;;;;;5083727;28;20105;-72
2021/04/15 08:41:48;;;;;;;8.75;4.80;;;10.90;50.00;;;;;;5086307;28;20109;-72
2021/04/15 08:44:32;;;;;;;9.98;5.72;;;11.90;49.40;;;;;;5083600;28;20075;-72
2021/04/15 08:47:06;;;;;;;7.80;5.13;;;12.30;48.30;;;;;;5084417;28;20060;-72
2021/04/15 08:49:41;;;;;;;9.60;4.95;;;12.10;48.70;;;;;;5083081;28;20067;-74
2021/04/15 08:52:38;;;;;;;21.92;12.02;;;11.80;48.50;;;;;;5084383;28;20048;-72
2021/04/15 08:55:15;;;;;;;7.60;5.10;;;11.20;48.50;;;;;;5079191;28;20061;-72
2021/04/15 08:58:07;;;;;;;8.60;5.43;;;10.80;49.60;;;;;;5082790;28;20136;-76
2021/04/15 09:00:55;;;;;;;11.15;5.25;;;11.20;49.80;;;;;;5081252;28;20070;-75
2021/04/15 09:03:32;;;;;;;11.43;5.03;;;12.10;48.00;;;;;;5078348;28;20571;-73
2021/04/15 09:06:19;;;;;;;10.15;5.25;;;13.20;45.40;;;;;;5083200;28;20055;-73
2021/04/15 09:08:55;;;;;;;13.85;5.47;;;12.20;46.90;;;;;;5083259;28;20139;-70
2021/04/15 09:11:56;;;;;;;9.55;5.68;;;11.40;48.10;;;;;;5083123;28;20488;-73
2021/04/15 09:14:51;;;;;;;12.73;6.05;;;11.10;49.10;;;;;;5075773;28;20076;-73
2021/04/15 09:17:32;;;;;;;8.55;5.70;;;13.60;45.60;;;;;;5085128;28;20142;-71
2021/04/15 09:20:17;;;;;;;10.73;5.95;;;12.80;45.30;;;;;;5081696;28;20052;-72
2021/04/15 09:23:20;;;;;;;12.85;5.95;;;11.50;47.40;;;;;;5086375;28;20076;-70
2021/04/15 09:26:11;;;;;;;9.65;5.05;;;11.10;48.50;;;;;;5089524;28;20224;-70
2021/04/15 09:28:50;;;;;;;7.68;4.47;;;10.90;48.80;;;;;;5087830;28;20056;-69
2021/04/15 09:31:49;;;;;;;10.30;5.18;;;10.70;48.70;;;;;;5085933;28;20044;-70
2021/04/15 09:34:31;;;;;;;8.15;4.97;;;11.90;48.40;;;;;;5086353;28;20126;-69
2021/04/15 09:37:23;;;;;;;8.13;5.30;;;11.70;46.60;;;;;;5082818;28;20040;-70
2021/04/15 09:39:57;;;;;;;12.18;5.47;;;11.00;48.30;;;;;;5083735;28;20089;-71
2021/04/15 09:42:48;;;;;;;8.05;5.22;;;10.70;48.80;;;;;;5086857;28;20080;-71
2021/04/15 09:45:21;;;;;;;10.07;5.30;;;10.70;49.30;;;;;;5088796;28;20484;-72
2021/04/15 09:48:17;;;;;;;8.73;4.38;;;10.50;48.60;;;;;;5086283;28;20113;-70
2021/04/15 09:50:56;;;;;;;8.57;4.63;;;10.60;48.20;;;;;;5085591;28;20044;-71
2021/04/15 09:53:28;;;;;;;6.85;4.15;;;10.40;49.30;;;;;;5116306;27;20040;-71
2021/04/15 09:56:21;;;;;;;10.18;4.82;;;13.00;46.50;;;;;;5087458;28;20122;-73
2021/04/15 09:58:56;;;;;;;6.95;4.35;;;13.60;43.60;;;;;;5088024;28;20047;-74
2021/04/15 10:01:38;;;;;;;6.93;4.22;;;12.10;44.40;;;;;;5083614;28;20056;-74
2021/04/15 10:04:24;;;;;;;12.82;4.90;;;11.50;45.30;;;;;;5086238;28;20052;-74
2021/04/15 10:06:56;;;;;;;12.13;4.45;;;12.10;45.40;;;;;;5086216;28;20433;-74
2021/04/15 10:09:26;;;;;;;6.10;4.13;;;11.80;45.00;;;;;;5086232;28;20499;-75
2021/04/15 10:12:27;;;;;;;8.95;3.72;;;12.00;44.00;;;;;;5084071;28;20052;-75
2021/04/15 10:15:29;;;;;;;8.95;4.30;;;11.40;44.40;;;;;;5079746;28;20049;-72
2021/04/15 10:18:21;;;;;;;7.10;3.88;;;11.20;44.80;;;;;;5055278;28;21094;-73
2021/04/15 10:21:11;;;;;;;8.20;4.35;;;11.50;44.90;;;;;;5083379;28;20416;-73
2021/04/15 10:24:05;;;;;;;7.72;4.05;;;11.00;46.10;;;;;;5078593;28;20075;-73
2021/04/15 10:26:43;;;;;;;7.97;4.38;;;10.90;46.10;;;;;;5079232;28;20068;-74
2021/04/15 10:29:28;;;;;;;3.63;2.85;;;11.00;45.70;;;;;;5077438;28;20130;-73
2021/04/15 10:31:57;;;;;;;4.32;2.53;;;10.90;44.30;;;;;;5079229;28;20047;-73
2021/04/15 10:34:55;;;;;;;4.70;2.55;;;13.60;40.60;;;;;;5079131;28;20513;-73
2021/04/15 10:37:46;;;;;;;4.10;2.50;;;14.50;38.80;;;;;;5109166;27;20094;-73
2021/04/15 10:40:44;;;;;;;4.47;2.58;;;15.00;36.40;;;;;;5097630;28;20056;-73
2021/04/15 10:43:35;;;;;;;2.63;1.80;;;14.90;34.70;;;;;;5058567;27;20142;-73
2021/04/15 10:46:08;;;;;;;;;;;13.60;36.00;;;;;;5080229;28;20052;-73
2021/04/15 10:48:55;;;;;;;3.72;1.45;;;13.40;36.70;;;;;;5080331;28;20027;-73
2021/04/15 10:51:44;;;;;;;3.35;2.00;;;12.40;36.10;;;;;;5078732;28;20047;-73
2021/04/15 10:54:23;;;;;;;2.92;1.67;;;12.30;36.00;;;;;;5079499;28;20052;-73
2021/04/15 10:56:54;;;;;;;2.22;1.50;;;12.30;37.10;;;;;;5080558;28;20067;-73
2021/04/15 10:59:31;;;;;;;1.90;1.30;;;12.00;37.70;;;;;;5081896;28;20804;-76
2021/04/15 11:02:23;;;;;;;4.68;1.60;;;11.90;36.70;;;;;;5078231;28;20048;-77
2021/04/15 11:04:51;;;;;;;3.28;2.03;;;11.90;36.50;;;;;;5075140;28;20049;-77
2021/04/15 11:07:27;;;;;;;3.97;1.77;;;12.20;36.50;;;;;;5079565;28;20465;-76
2021/04/15 11:09:57;;;;;;;4.40;2.35;;;13.10;35.90;;;;;;5080496;28;20076;-76
2021/04/15 11:12:30;;;;;;;3.45;2.42;;;13.50;36.00;;;;;;5077173;28;20453;-77
2021/04/15 11:15:06;;;;;;;6.25;3.13;;;13.50;35.40;;;;;;5081360;28;20106;-76
2021/04/15 11:17:41;;;;;;;6.53;3.25;;;13.90;34.90;;;;;;5081667;28;20067;-77
2021/04/15 11:20:20;;;;;;;6.32;3.20;;;14.20;35.30;;;;;;5080235;28;20667;-77
2021/04/15 11:23:01;;;;;;;5.65;2.50;;;14.40;34.60;;;;;;5080198;28;20075;-75
2021/04/15 11:25:50;;;;;;;4.78;3.30;;;15.30;33.40;;;;;;5080899;28;20052;-76
2021/04/15 11:28:22;;;;;;;5.60;2.63;;;15.80;32.60;;;;;;5083398;28;20597;-77
2021/04/15 11:30:57;;;;;;;3.25;2.92;;;15.90;33.60;;;;;;5084919;28;20145;-76
2021/04/15 11:33:41;;;;;;;9.85;2.78;;;15.10;34.20;;;;;;5084505;28;20147;-75
2021/04/15 11:36:15;;;;;;;7.50;3.15;;;14.10;35.90;;;;;;5082923;28;20097;-77
2021/04/15 11:38:43;;;;;;;5.60;2.72;;;13.00;36.40;;;;;;5082400;28;20056;-76
2021/04/15 11:41:17;;;;;;;8.02;3.53;;;13.00;35.80;;;;;;5085890;28;20150;-76
2021/04/15 11:43:44;;;;;;;3.53;2.70;;;13.00;35.20;;;;;;5080642;28;20067;-75
2021/04/15 11:46:21;;;;;;;2.80;2.42;;;13.10;34.70;;;;;;5074262;28;20060;-76
2021/04/15 11:49:07;;;;;;;5.00;2.78;;;12.60;35.00;;;;;;5082485;28;20109;-76
2021/04/15 11:51:38;;;;;;;5.40;2.40;;;12.00;35.40;;;;;;5082302;28;20148;-77
2021/04/15 11:54:13;;;;;;;3.55;2.70;;;11.60;35.90;;;;;;5084581;28;20048;-76
2021/04/15 11:56:49;;;;;;;5.63;2.97;;;11.50;37.20;;;;;;5083547;28;20063;-77
2021/04/15 11:59:23;;;;;;;12.70;3.20;;;11.70;37.20;;;;;;5083200;28;20079;-77
2021/04/15 12:01:51;;;;;;;4.60;2.97;;;11.70;40.10;;;;;;5082538;28;20048;-78
2021/04/15 12:04:25;;;;;;;5.13;3.00;;;12.50;40.60;;;;;;5081150;28;20590;-77
2021/04/15 12:06:58;;;;;;;4.85;2.92;;;13.70;38.90;;;;;;5083208;28;20101;-77
2021/04/15 12:09:30;;;;;;;6.40;2.80;;;15.30;37.00;;;;;;5076741;28;20152;-73
2021/04/15 12:12:07;;;;;;;5.82;2.63;;;14.30;36.40;;;;;;5081056;28;23042;-75
2021/04/15 12:14:36;;;;;;;5.72;2.58;;;13.80;36.20;;;;;;5084525;28;20455;-76
2021/04/15 12:17:28;;;;;;;3.70;2.63;;;12.10;37.80;;;;;;5082125;28;20143;-73
2021/04/15 12:19:57;;;;;;;5.18;2.65;;;11.60;38.10;;;;;;5083123;28;20466;-77
2021/04/15 12:22:32;;;;;;;5.20;2.40;;;11.80;37.70;;;;;;5083793;28;20131;-76
2021/04/15 12:25:01;;;;;;;5.88;2.30;;;11.70;37.70;;;;;;5080621;28;20056;-76
2021/04/15 12:27:31;;;;;;;3.58;2.25;;;11.60;38.00;;;;;;5081944;28;20079;-72
2021/04/15 12:30:03;;;;;;;3.83;2.28;;;12.60;37.60;;;;;;5079151;28;20182;-76
2021/04/15 12:32:52;;;;;;;3.72;2.17;;;13.60;36.00;;;;;;5083520;28;20044;-76
2021/04/15 12:35:38;;;;;;;3.15;2.70;;;14.10;34.90;;;;;;5079383;28;20072;-74
2021/04/15 12:38:15;;;;;;;5.20;2.30;;;14.50;33.60;;;;;;5081203;28;20056;-77
2021/04/15 12:40:48;;;;;;;6.95;2.40;;;15.70;32.50;;;;;;5081344;28;20056;-76
2021/04/15 12:43:19;;;;;;;3.30;2.33;;;16.50;31.10;;;;;;5084800;28;20139;-76
2021/04/15 12:45:51;;;;;;;2.80;2.08;;;17.10;29.70;;;;;;5077185;28;20164;-76
2021/04/15 12:48:38;;;;;;;3.88;2.08;;;16.50;29.20;;;;;;5080101;28;20075;-75
2021/04/15 12:51:13;;;;;;;4.32;1.95;;;17.50;28.50;;;;;;5082298;28;20480;-76
2021/04/15 12:53:44;;;;;;;4.00;2.03;;;17.50;28.20;;;;;;5083038;28;20051;-73
2021/04/15 12:56:16;;;;;;;3.38;2.15;;;17.70;28.40;;;;;;5078906;28;20048;-72
2021/04/15 12:58:44;;;;;;;5.10;1.90;;;17.30;28.90;;;;;;5083788;28;20126;-71
2021/04/15 13:01:12;;;;;;;4.40;2.17;;;18.50;28.10;;;;;;5081739;28;21360;-71
2021/04/15 13:03:41;;;;;;;3.03;2.28;;;19.30;28.10;;;;;;5083441;28;20546;-71
2021/04/15 13:06:17;;;;;;;4.43;2.67;;;19.10;27.70;;;;;;5081649;28;20158;-71
2021/04/15 13:08:48;;;;;;;4.13;2.30;;;19.20;28.00;;;;;;5080617;28;20056;-70
2021/04/15 13:11:17;;;;;;;4.55;2.60;;;18.60;28.40;;;;;;5081651;28;20120;-71
2021/04/15 13:13:53;;;;;;;3.78;2.65;;;18.20;28.90;;;;;;5083969;28;20055;-70
2021/04/15 13:16:34;;;;;;;4.45;2.70;;;18.00;29.50;;;;;;5082209;28;20051;-70
2021/04/15 13:19:02;;;;;;;4.72;2.50;;;16.60;29.10;;;;;;5071996;28;20079;-71
2021/04/15 13:21:32;;;;;;;4.72;2.38;;;15.20;30.10;;;;;;5071530;28;20109;-71
2021/04/15 13:24:00;;;;;;;3.38;2.47;;;14.70;30.90;;;;;;5069377;28;20763;-70
2021/04/15 13:26:34;;;;;;;3.05;2.35;;;14.70;31.40;;;;;;5073205;28;20398;-69
2021/04/15 13:29:16;;;;;;;5.07;2.88;;;14.00;31.80;;;;;;5069724;28;20281;-71
2021/04/15 13:32:02;;;;;;;4.85;2.47;;;13.80;33.00;;;;;;5070190;28;20491;-70
2021/04/15 13:35:02;;;;;;;6.85;3.40;;;13.60;33.50;;;;;;5069198;28;20409;-70
2021/04/15 13:37:40;;;;;;;5.28;2.90;;;13.60;33.50;;;;;;5068630;28;20044;-71
2021/04/15 13:40:25;;;;;;;5.32;2.50;;;14.30;33.70;;;;;;5069727;28;20137;-71
2021/04/15 13:42:51;;;;;;;5.57;2.88;;;14.90;31.80;;;;;;5070829;28;20101;-71
2021/04/15 13:45:42;;;;;;;4.35;2.80;;;14.60;32.20;;;;;;5073633;28;20052;-71
2021/04/15 13:48:10;;;;;;;5.47;2.50;;;14.60;32.10;;;;;;5070048;28;20059;-71
2021/04/15 13:51:12;;;;;;;4.95;2.25;;;13.70;31.90;;;;;;5070184;28;20067;-71
2021/04/15 13:53:54;;;;;;;4.03;2.42;;;13.70;32.60;;;;;;4993866;28;20561;-71